sensor_id;sensor_type;location;lat;lon;timestamp;P1;durP1;ratioP1;P2;durP2;ratioP2
73869;SDS011;64924;42.140;24.762;2023-09-19T00:01:07;8.40;;;5.65;;
73869;SDS011;64924;42.140;24.762;2023-09-19T00:03:34;10.48;;;5.85;;
73869;SDS011;64924;42.140;24.762;2023-09-19T00:06:02;9.27;;;4.88;;
73869;SDS011;64924;42.140;24.762;2023-09-19T00:08:29;7.75;;;5.55;;
73869;SDS011;64924;42.140;24.762;2023-09-19T00:10:55;12.15;;;5.68;;
73869;SDS011;64924;42.140;24.762;2023-09-19T00:13:21;7.80;;;4.78;;
73869;SDS011;64924;42.140;24.762;2023-09-19T00:15:47;9.50;;;5.40;;
73869;SDS011;64924;42.140;24.762;2023-09-19T00:18:13;11.75;;;6.30;;
73869;SDS011;64924;42.140;24.762;2023-09-19T00:20:40;9.80;;;5.63;;
73869;SDS011;64924;42.140;24.762;2023-09-19T00:23:07;9.43;;;5.18;;
73869;SDS011;64924;42.140;24.762;2023-09-19T00:25:36;8.98;;;5.10;;
73869;SDS011;64924;42.140;24.762;2023-09-19T00:28:02;9.23;;;5.78;;
73869;SDS011;64924;42.140;24.762;2023-09-19T00:30:32;11.98;;;5.45;;
73869;SDS011;64924;42.140;24.762;2023-09-19T00:32:58;8.48;;;5.32;;
73869;SDS011;64924;42.140;24.762;2023-09-19T00:35:26;6.80;;;5.07;;
73869;SDS011;64924;42.140;24.762;2023-09-19T00:37:52;7.10;;;5.13;;
73869;SDS011;64924;42.140;24.762;2023-09-19T00:40:18;9.25;;;5.43;;
73869;SDS011;64924;42.140;24.762;2023-09-19T00:42:45;8.05;;;5.20;;
73869;SDS011;64924;42.140;24.762;2023-09-19T00:45:11;8.25;;;5.18;;
73869;SDS011;64924;42.140;24.762;2023-09-19T00:50:06;9.13;;;4.65;;
73869;SDS011;64924;42.140;24.762;2023-09-19T00:52:37;8.48;;;5.05;;
73869;SDS011;64924;42.140;24.762;2023-09-19T00:55:07;11.13;;;5.40;;
73869;SDS011;64924;42.140;24.762;2023-09-19T00:57:33;7.45;;;4.75;;
73869;SDS011;64924;42.140;24.762;2023-09-19T01:00:01;6.82;;;5.00;;
73869;SDS011;64924;42.140;24.762;2023-09-19T01:02:32;8.27;;;5.10;;
73869;SDS011;64924;42.140;24.762;2023-09-19T01:04:59;8.85;;;5.03;;
73869;SDS011;64924;42.140;24.762;2023-09-19T01:07:26;10.75;;;5.35;;
73869;SDS011;64924;42.140;24.762;2023-09-19T01:09:55;9.27;;;5.40;;
73869;SDS011;64924;42.140;24.762;2023-09-19T01:12:26;8.95;;;4.93;;
73869;SDS011;64924;42.140;24.762;2023-09-19T01:15:32;8.00;;;5.22;;
73869;SDS011;64924;42.140;24.762;2023-09-19T01:18:00;9.97;;;4.87;;
73869;SDS011;64924;42.140;24.762;2023-09-19T01:26:18;8.93;;;5.07;;
73869;SDS011;64924;42.140;24.762;2023-09-19T01:29:23;9.68;;;5.40;;
73869;SDS011;64924;42.140;24.762;2023-09-19T01:32:01;10.85;;;4.97;;
73869;SDS011;64924;42.140;24.762;2023-09-19T01:37:15;9.38;;;5.68;;
73869;SDS011;64924;42.140;24.762;2023-09-19T01:39:48;9.48;;;5.38;;
73869;SDS011;64924;42.140;24.762;2023-09-19T01:44:51;7.90;;;5.55;;
73869;SDS011;64924;42.140;24.762;2023-09-19T01:47:37;9.50;;;5.85;;
73869;SDS011;64924;42.140;24.762;2023-09-19T01:53:04;11.63;;;6.65;;
73869;SDS011;64924;42.140;24.762;2023-09-19T01:55:41;10.40;;;5.63;;
73869;SDS011;64924;42.140;24.762;2023-09-19T01:58:16;17.63;;;6.63;;
73869;SDS011;64924;42.140;24.762;2023-09-19T02:00:47;10.55;;;6.13;;
73869;SDS011;64924;42.140;24.762;2023-09-19T02:03:17;12.68;;;7.40;;
73869;SDS011;64924;42.140;24.762;2023-09-19T02:05:53;11.13;;;6.80;;
73869;SDS011;64924;42.140;24.762;2023-09-19T02:08:19;14.73;;;6.60;;
73869;SDS011;64924;42.140;24.762;2023-09-19T02:13:15;9.55;;;5.60;;
73869;SDS011;64924;42.140;24.762;2023-09-19T02:15:42;11.00;;;6.50;;
73869;SDS011;64924;42.140;24.762;2023-09-19T02:18:09;9.27;;;5.28;;
73869;SDS011;64924;42.140;24.762;2023-09-19T02:20:34;8.95;;;4.95;;
73869;SDS011;64924;42.140;24.762;2023-09-19T02:23:00;7.47;;;5.32;;
73869;SDS011;64924;42.140;24.762;2023-09-19T02:25:27;11.52;;;5.75;;
73869;SDS011;64924;42.140;24.762;2023-09-19T02:27:53;7.70;;;5.15;;
73869;SDS011;64924;42.140;24.762;2023-09-19T02:30:19;10.23;;;5.43;;
73869;SDS011;64924;42.140;24.762;2023-09-19T02:32:48;8.65;;;5.60;;
73869;SDS011;64924;42.140;24.762;2023-09-19T02:35:14;8.20;;;5.22;;
73869;SDS011;64924;42.140;24.762;2023-09-19T02:40:09;8.68;;;5.03;;
73869;SDS011;64924;42.140;24.762;2023-09-19T02:42:44;10.38;;;5.43;;
73869;SDS011;64924;42.140;24.762;2023-09-19T02:45:12;9.52;;;5.97;;
73869;SDS011;64924;42.140;24.762;2023-09-19T02:47:39;8.57;;;4.70;;
73869;SDS011;64924;42.140;24.762;2023-09-19T02:50:05;8.13;;;5.95;;
73869;SDS011;64924;42.140;24.762;2023-09-19T02:52:31;7.63;;;5.00;;
73869;SDS011;64924;42.140;24.762;2023-09-19T02:54:56;9.07;;;5.57;;
73869;SDS011;64924;42.140;24.762;2023-09-19T02:57:22;9.88;;;5.47;;
73869;SDS011;64924;42.140;24.762;2023-09-19T02:59:49;8.30;;;4.97;;
73869;SDS011;64924;42.140;24.762;2023-09-19T03:02:15;8.52;;;5.13;;
73869;SDS011;64924;42.140;24.762;2023-09-19T03:04:41;9.75;;;4.93;;
73869;SDS011;64924;42.140;24.762;2023-09-19T03:07:06;7.60;;;5.47;;
73869;SDS011;64924;42.140;24.762;2023-09-19T03:09:32;8.00;;;4.90;;
73869;SDS011;64924;42.140;24.762;2023-09-19T03:11:57;9.10;;;5.20;;
73869;SDS011;64924;42.140;24.762;2023-09-19T03:14:23;11.20;;;5.43;;
73869;SDS011;64924;42.140;24.762;2023-09-19T03:16:49;9.18;;;4.90;;
73869;SDS011;64924;42.140;24.762;2023-09-19T03:19:15;10.23;;;5.60;;
73869;SDS011;64924;42.140;24.762;2023-09-19T03:21:41;6.50;;;4.88;;
73869;SDS011;64924;42.140;24.762;2023-09-19T03:24:06;9.13;;;4.85;;
73869;SDS011;64924;42.140;24.762;2023-09-19T03:26:32;7.05;;;4.50;;
73869;SDS011;64924;42.140;24.762;2023-09-19T03:28:58;9.07;;;5.25;;
73869;SDS011;64924;42.140;24.762;2023-09-19T03:31:23;17.92;;;5.88;;
73869;SDS011;64924;42.140;24.762;2023-09-19T03:33:49;9.68;;;5.78;;
73869;SDS011;64924;42.140;24.762;2023-09-19T03:36:14;7.43;;;5.25;;
73869;SDS011;64924;42.140;24.762;2023-09-19T03:38:40;9.00;;;5.70;;
73869;SDS011;64924;42.140;24.762;2023-09-19T03:41:05;16.67;;;6.05;;
73869;SDS011;64924;42.140;24.762;2023-09-19T03:43:34;9.85;;;5.18;;
73869;SDS011;64924;42.140;24.762;2023-09-19T03:46:02;8.98;;;5.72;;
73869;SDS011;64924;42.140;24.762;2023-09-19T03:48:31;10.18;;;5.50;;
73869;SDS011;64924;42.140;24.762;2023-09-19T03:50:57;13.10;;;6.18;;
73869;SDS011;64924;42.140;24.762;2023-09-19T03:53:22;8.27;;;5.90;;
73869;SDS011;64924;42.140;24.762;2023-09-19T03:55:48;7.88;;;5.20;;
73869;SDS011;64924;42.140;24.762;2023-09-19T03:58:14;8.48;;;6.22;;
73869;SDS011;64924;42.140;24.762;2023-09-19T04:00:39;13.73;;;6.50;;
73869;SDS011;64924;42.140;24.762;2023-09-19T04:03:04;10.55;;;6.18;;
73869;SDS011;64924;42.140;24.762;2023-09-19T04:05:31;7.28;;;5.90;;
73869;SDS011;64924;42.140;24.762;2023-09-19T04:07:58;9.25;;;5.32;;
73869;SDS011;64924;42.140;24.762;2023-09-19T04:10:23;7.60;;;5.82;;
73869;SDS011;64924;42.140;24.762;2023-09-19T04:12:52;10.68;;;5.88;;
73869;SDS011;64924;42.140;24.762;2023-09-19T04:15:18;11.32;;;6.05;;
73869;SDS011;64924;42.140;24.762;2023-09-19T04:17:44;12.30;;;6.38;;
73869;SDS011;64924;42.140;24.762;2023-09-19T04:20:09;13.18;;;5.95;;
73869;SDS011;64924;42.140;24.762;2023-09-19T04:22:37;10.55;;;5.85;;
73869;SDS011;64924;42.140;24.762;2023-09-19T04:25:03;15.48;;;6.15;;
73869;SDS011;64924;42.140;24.762;2023-09-19T04:27:29;9.38;;;6.00;;
73869;SDS011;64924;42.140;24.762;2023-09-19T04:29:54;10.90;;;5.68;;
73869;SDS011;64924;42.140;24.762;2023-09-19T04:32:24;10.85;;;5.88;;
73869;SDS011;64924;42.140;24.762;2023-09-19T04:34:53;15.23;;;5.70;;
73869;SDS011;64924;42.140;24.762;2023-09-19T04:37:18;10.50;;;5.57;;
73869;SDS011;64924;42.140;24.762;2023-09-19T04:39:44;9.07;;;5.75;;
73869;SDS011;64924;42.140;24.762;2023-09-19T04:42:12;10.38;;;4.75;;
73869;SDS011;64924;42.140;24.762;2023-09-19T04:44:39;10.10;;;3.67;;
73869;SDS011;64924;42.140;24.762;2023-09-19T04:47:05;11.88;;;5.35;;
73869;SDS011;64924;42.140;24.762;2023-09-19T04:49:31;10.68;;;5.47;;
73869;SDS011;64924;42.140;24.762;2023-09-19T04:51:56;11.73;;;5.60;;
73869;SDS011;64924;42.140;24.762;2023-09-19T04:54:22;10.30;;;5.63;;
73869;SDS011;64924;42.140;24.762;2023-09-19T04:56:47;9.30;;;5.18;;
73869;SDS011;64924;42.140;24.762;2023-09-19T04:59:13;13.50;;;5.90;;
73869;SDS011;64924;42.140;24.762;2023-09-19T05:01:40;12.77;;;6.00;;
73869;SDS011;64924;42.140;24.762;2023-09-19T05:04:05;9.82;;;5.72;;
73869;SDS011;64924;42.140;24.762;2023-09-19T05:06:31;10.07;;;6.50;;
73869;SDS011;64924;42.140;24.762;2023-09-19T05:08:56;8.73;;;5.68;;
73869;SDS011;64924;42.140;24.762;2023-09-19T05:11:22;10.18;;;5.43;;
73869;SDS011;64924;42.140;24.762;2023-09-19T05:13:48;10.57;;;5.43;;
73869;SDS011;64924;42.140;24.762;2023-09-19T05:16:18;11.38;;;6.00;;
73869;SDS011;64924;42.140;24.762;2023-09-19T05:18:44;9.18;;;5.85;;
73869;SDS011;64924;42.140;24.762;2023-09-19T05:21:09;10.43;;;5.03;;
73869;SDS011;64924;42.140;24.762;2023-09-19T05:23:35;12.73;;;5.70;;
73869;SDS011;64924;42.140;24.762;2023-09-19T05:26:02;12.82;;;6.22;;
73869;SDS011;64924;42.140;24.762;2023-09-19T05:28:29;7.55;;;5.38;;
73869;SDS011;64924;42.140;24.762;2023-09-19T05:30:54;8.90;;;5.10;;
73869;SDS011;64924;42.140;24.762;2023-09-19T05:33:20;10.02;;;5.82;;
73869;SDS011;64924;42.140;24.762;2023-09-19T05:35:45;12.95;;;5.53;;
73869;SDS011;64924;42.140;24.762;2023-09-19T05:38:13;10.95;;;5.47;;
73869;SDS011;64924;42.140;24.762;2023-09-19T05:40:39;9.80;;;5.20;;
73869;SDS011;64924;42.140;24.762;2023-09-19T05:43:10;7.20;;;4.72;;
73869;SDS011;64924;42.140;24.762;2023-09-19T05:45:35;8.23;;;4.90;;
73869;SDS011;64924;42.140;24.762;2023-09-19T05:48:11;5.53;;;4.28;;
73869;SDS011;64924;42.140;24.762;2023-09-19T05:50:41;7.47;;;5.00;;
73869;SDS011;64924;42.140;24.762;2023-09-19T05:53:07;12.60;;;5.38;;
73869;SDS011;64924;42.140;24.762;2023-09-19T05:55:33;7.22;;;4.97;;
73869;SDS011;64924;42.140;24.762;2023-09-19T05:57:59;6.85;;;5.32;;
73869;SDS011;64924;42.140;24.762;2023-09-19T06:00:25;9.45;;;4.57;;
73869;SDS011;64924;42.140;24.762;2023-09-19T06:02:52;9.45;;;4.70;;
73869;SDS011;64924;42.140;24.762;2023-09-19T06:05:19;11.90;;;4.68;;
73869;SDS011;64924;42.140;24.762;2023-09-19T06:07:45;10.13;;;4.68;;
73869;SDS011;64924;42.140;24.762;2023-09-19T06:10:12;6.35;;;4.28;;
73869;SDS011;64924;42.140;24.762;2023-09-19T06:12:44;4.90;;;3.90;;
73869;SDS011;64924;42.140;24.762;2023-09-19T06:15:10;9.00;;;3.97;;
73869;SDS011;64924;42.140;24.762;2023-09-19T06:17:49;12.65;;;6.80;;
73869;SDS011;64924;42.140;24.762;2023-09-19T06:20:15;8.88;;;5.03;;
73869;SDS011;64924;42.140;24.762;2023-09-19T06:22:42;8.68;;;5.40;;
73869;SDS011;64924;42.140;24.762;2023-09-19T06:25:09;8.88;;;5.40;;
73869;SDS011;64924;42.140;24.762;2023-09-19T06:27:37;9.07;;;4.70;;
73869;SDS011;64924;42.140;24.762;2023-09-19T06:30:09;11.43;;;4.80;;
73869;SDS011;64924;42.140;24.762;2023-09-19T06:32:39;12.85;;;4.75;;
73869;SDS011;64924;42.140;24.762;2023-09-19T06:35:09;12.75;;;5.45;;
73869;SDS011;64924;42.140;24.762;2023-09-19T06:37:38;9.32;;;5.43;;
73869;SDS011;64924;42.140;24.762;2023-09-19T06:40:10;9.40;;;5.18;;
73869;SDS011;64924;42.140;24.762;2023-09-19T06:42:44;7.60;;;4.95;;
73869;SDS011;64924;42.140;24.762;2023-09-19T06:45:11;9.90;;;5.13;;
73869;SDS011;64924;42.140;24.762;2023-09-19T06:47:42;9.27;;;5.10;;
73869;SDS011;64924;42.140;24.762;2023-09-19T06:50:09;11.95;;;4.80;;
73869;SDS011;64924;42.140;24.762;2023-09-19T06:52:39;9.82;;;5.05;;
73869;SDS011;64924;42.140;24.762;2023-09-19T06:55:06;10.43;;;5.10;;
73869;SDS011;64924;42.140;24.762;2023-09-19T06:57:32;10.90;;;4.47;;
73869;SDS011;64924;42.140;24.762;2023-09-19T06:59:57;9.10;;;5.10;;
73869;SDS011;64924;42.140;24.762;2023-09-19T07:02:23;7.93;;;4.40;;
73869;SDS011;64924;42.140;24.762;2023-09-19T07:04:48;11.10;;;4.93;;
73869;SDS011;64924;42.140;24.762;2023-09-19T07:07:15;9.60;;;5.00;;
73869;SDS011;64924;42.140;24.762;2023-09-19T07:09:41;9.88;;;4.90;;
73869;SDS011;64924;42.140;24.762;2023-09-19T07:12:07;10.95;;;4.57;;
73869;SDS011;64924;42.140;24.762;2023-09-19T07:14:33;8.38;;;4.60;;
73869;SDS011;64924;42.140;24.762;2023-09-19T07:16:58;12.25;;;5.18;;
73869;SDS011;64924;42.140;24.762;2023-09-19T07:19:26;10.48;;;5.15;;
73869;SDS011;64924;42.140;24.762;2023-09-19T07:21:53;8.93;;;5.20;;
73869;SDS011;64924;42.140;24.762;2023-09-19T07:24:19;10.43;;;4.72;;
73869;SDS011;64924;42.140;24.762;2023-09-19T07:26:47;13.02;;;5.53;;
73869;SDS011;64924;42.140;24.762;2023-09-19T07:29:13;8.65;;;5.18;;
73869;SDS011;64924;42.140;24.762;2023-09-19T07:31:38;10.35;;;5.22;;
73869;SDS011;64924;42.140;24.762;2023-09-19T07:34:04;8.35;;;5.28;;
73869;SDS011;64924;42.140;24.762;2023-09-19T07:36:30;8.38;;;4.97;;
73869;SDS011;64924;42.140;24.762;2023-09-19T07:38:57;8.90;;;5.28;;
73869;SDS011;64924;42.140;24.762;2023-09-19T07:41:23;11.27;;;5.00;;
73869;SDS011;64924;42.140;24.762;2023-09-19T07:43:50;8.93;;;5.03;;
73869;SDS011;64924;42.140;24.762;2023-09-19T07:46:16;8.50;;;5.53;;
73869;SDS011;64924;42.140;24.762;2023-09-19T07:48:41;10.57;;;5.40;;
73869;SDS011;64924;42.140;24.762;2023-09-19T07:51:12;7.63;;;5.05;;
73869;SDS011;64924;42.140;24.762;2023-09-19T07:53:41;11.43;;;5.35;;
73869;SDS011;64924;42.140;24.762;2023-09-19T07:56:07;8.35;;;5.18;;
73869;SDS011;64924;42.140;24.762;2023-09-19T07:58:34;10.00;;;4.65;;
73869;SDS011;64924;42.140;24.762;2023-09-19T08:01:08;14.93;;;4.82;;
73869;SDS011;64924;42.140;24.762;2023-09-19T08:03:35;8.00;;;4.80;;
73869;SDS011;64924;42.140;24.762;2023-09-19T08:06:10;16.40;;;5.35;;
73869;SDS011;64924;42.140;24.762;2023-09-19T08:08:36;10.60;;;5.10;;
73869;SDS011;64924;42.140;24.762;2023-09-19T08:11:05;6.85;;;5.00;;
73869;SDS011;64924;42.140;24.762;2023-09-19T08:13:40;9.82;;;5.05;;
73869;SDS011;64924;42.140;24.762;2023-09-19T08:16:12;10.30;;;4.85;;
73869;SDS011;64924;42.140;24.762;2023-09-19T08:18:40;9.88;;;4.97;;
73869;SDS011;64924;42.140;24.762;2023-09-19T08:21:06;11.10;;;4.55;;
73869;SDS011;64924;42.140;24.762;2023-09-19T08:23:36;9.55;;;4.72;;
73869;SDS011;64924;42.140;24.762;2023-09-19T08:26:03;6.97;;;4.30;;
73869;SDS011;64924;42.140;24.762;2023-09-19T08:28:31;8.00;;;4.13;;
73869;SDS011;64924;42.140;24.762;2023-09-19T08:31:01;6.38;;;4.72;;
73869;SDS011;64924;42.140;24.762;2023-09-19T08:33:31;10.02;;;4.10;;
73869;SDS011;64924;42.140;24.762;2023-09-19T08:35:58;8.07;;;4.00;;
73869;SDS011;64924;42.140;24.762;2023-09-19T08:38:23;7.60;;;5.25;;
73869;SDS011;64924;42.140;24.762;2023-09-19T08:40:49;10.32;;;4.25;;
73869;SDS011;64924;42.140;24.762;2023-09-19T08:43:14;9.10;;;4.30;;
73869;SDS011;64924;42.140;24.762;2023-09-19T08:45:40;9.90;;;4.22;;
73869;SDS011;64924;42.140;24.762;2023-09-19T08:50:31;7.50;;;4.30;;
73869;SDS011;64924;42.140;24.762;2023-09-19T08:53:01;8.93;;;4.22;;
73869;SDS011;64924;42.140;24.762;2023-09-19T08:55:38;9.30;;;4.60;;
73869;SDS011;64924;42.140;24.762;2023-09-19T08:58:08;6.10;;;4.47;;
73869;SDS011;64924;42.140;24.762;2023-09-19T09:00:36;10.20;;;4.53;;
73869;SDS011;64924;42.140;24.762;2023-09-19T09:03:01;11.38;;;4.45;;
73869;SDS011;64924;42.140;24.762;2023-09-19T09:05:29;6.38;;;3.97;;
73869;SDS011;64924;42.140;24.762;2023-09-19T09:07:57;6.57;;;3.83;;
73869;SDS011;64924;42.140;24.762;2023-09-19T09:10:24;8.40;;;4.05;;
73869;SDS011;64924;42.140;24.762;2023-09-19T09:12:50;6.68;;;4.47;;
73869;SDS011;64924;42.140;24.762;2023-09-19T09:15:21;9.35;;;4.03;;
73869;SDS011;64924;42.140;24.762;2023-09-19T09:17:48;7.70;;;4.13;;
73869;SDS011;64924;42.140;24.762;2023-09-19T09:20:16;8.90;;;4.00;;
73869;SDS011;64924;42.140;24.762;2023-09-19T09:22:53;5.93;;;4.00;;
73869;SDS011;64924;42.140;24.762;2023-09-19T09:25:21;12.43;;;4.70;;
73869;SDS011;64924;42.140;24.762;2023-09-19T09:27:59;7.47;;;3.95;;
73869;SDS011;64924;42.140;24.762;2023-09-19T09:30:33;8.43;;;4.95;;
73869;SDS011;64924;42.140;24.762;2023-09-19T09:33:12;10.02;;;5.20;;
73869;SDS011;64924;42.140;24.762;2023-09-19T09:35:47;7.95;;;4.53;;
73869;SDS011;64924;42.140;24.762;2023-09-19T09:38:17;8.52;;;5.75;;
73869;SDS011;64924;42.140;24.762;2023-09-19T09:40:50;11.93;;;4.95;;
73869;SDS011;64924;42.140;24.762;2023-09-19T09:48:45;8.75;;;4.68;;
73869;SDS011;64924;42.140;24.762;2023-09-19T09:51:31;13.65;;;5.35;;
73869;SDS011;64924;42.140;24.762;2023-09-19T09:54:13;10.30;;;4.47;;
73869;SDS011;64924;42.140;24.762;2023-09-19T09:59:20;9.20;;;5.13;;
73869;SDS011;64924;42.140;24.762;2023-09-19T10:01:49;8.98;;;4.88;;
73869;SDS011;64924;42.140;24.762;2023-09-19T10:04:36;8.88;;;4.65;;
73869;SDS011;64924;42.140;24.762;2023-09-19T10:07:29;8.98;;;4.57;;
73869;SDS011;64924;42.140;24.762;2023-09-19T10:10:05;7.38;;;4.80;;
73869;SDS011;64924;42.140;24.762;2023-09-19T10:12:42;7.35;;;4.32;;
73869;SDS011;64924;42.140;24.762;2023-09-19T10:15:09;9.05;;;4.95;;
73869;SDS011;64924;42.140;24.762;2023-09-19T10:17:36;9.65;;;4.63;;
73869;SDS011;64924;42.140;24.762;2023-09-19T10:20:03;9.70;;;5.45;;
73869;SDS011;64924;42.140;24.762;2023-09-19T10:22:47;10.35;;;5.88;;
73869;SDS011;64924;42.140;24.762;2023-09-19T10:25:26;9.30;;;4.90;;
73869;SDS011;64924;42.140;24.762;2023-09-19T10:27:57;11.38;;;5.25;;
73869;SDS011;64924;42.140;24.762;2023-09-19T10:30:29;9.20;;;4.50;;
73869;SDS011;64924;42.140;24.762;2023-09-19T10:33:00;7.78;;;4.57;;
73869;SDS011;64924;42.140;24.762;2023-09-19T10:35:27;8.98;;;4.40;;
73869;SDS011;64924;42.140;24.762;2023-09-19T10:37:57;11.10;;;5.50;;
73869;SDS011;64924;42.140;24.762;2023-09-19T10:40:25;9.10;;;5.30;;
73869;SDS011;64924;42.140;24.762;2023-09-19T10:43:00;8.30;;;5.07;;
73869;SDS011;64924;42.140;24.762;2023-09-19T10:45:30;7.13;;;4.95;;
73869;SDS011;64924;42.140;24.762;2023-09-19T10:48:01;7.65;;;4.13;;
73869;SDS011;64924;42.140;24.762;2023-09-19T10:50:35;12.05;;;5.25;;
73869;SDS011;64924;42.140;24.762;2023-09-19T10:53:06;9.52;;;6.18;;
73869;SDS011;64924;42.140;24.762;2023-09-19T10:55:35;10.73;;;4.28;;
73869;SDS011;64924;42.140;24.762;2023-09-19T10:58:02;8.15;;;5.10;;
73869;SDS011;64924;42.140;24.762;2023-09-19T11:00:55;9.00;;;4.45;;
73869;SDS011;64924;42.140;24.762;2023-09-19T11:03:21;10.90;;;4.80;;
73869;SDS011;64924;42.140;24.762;2023-09-19T11:06:01;10.88;;;5.35;;
73869;SDS011;64924;42.140;24.762;2023-09-19T11:08:53;9.52;;;4.88;;
73869;SDS011;64924;42.140;24.762;2023-09-19T11:14:15;7.35;;;4.93;;
73869;SDS011;64924;42.140;24.762;2023-09-19T11:30:39;8.82;;;4.95;;
73869;SDS011;64924;42.140;24.762;2023-09-19T11:33:24;7.65;;;5.13;;
73869;SDS011;64924;42.140;24.762;2023-09-19T11:43:47;11.95;;;4.80;;
73869;SDS011;64924;42.140;24.762;2023-09-19T11:46:24;9.75;;;5.47;;
73869;SDS011;64924;42.140;24.762;2023-09-19T11:48:50;13.20;;;5.80;;
73869;SDS011;64924;42.140;24.762;2023-09-19T11:51:17;9.20;;;5.55;;
73869;SDS011;64924;42.140;24.762;2023-09-19T11:53:47;10.23;;;5.32;;
73869;SDS011;64924;42.140;24.762;2023-09-19T11:56:17;9.40;;;5.50;;
73869;SDS011;64924;42.140;24.762;2023-09-19T11:58:45;8.65;;;5.13;;
73869;SDS011;64924;42.140;24.762;2023-09-19T12:01:14;13.20;;;7.22;;
73869;SDS011;64924;42.140;24.762;2023-09-19T12:03:47;11.90;;;7.78;;
73869;SDS011;64924;42.140;24.762;2023-09-19T12:06:17;9.80;;;7.28;;
73869;SDS011;64924;42.140;24.762;2023-09-19T12:08:43;7.85;;;5.75;;
73869;SDS011;64924;42.140;24.762;2023-09-19T12:11:15;10.57;;;5.70;;
73869;SDS011;64924;42.140;24.762;2023-09-19T12:13:45;10.02;;;5.95;;
73869;SDS011;64924;42.140;24.762;2023-09-19T17:49:00;29.77;;;11.27;;
73869;SDS011;64924;42.140;24.762;2023-09-19T17:51:26;29.38;;;11.07;;
73869;SDS011;64924;42.140;24.762;2023-09-19T17:53:52;33.90;;;14.38;;
73869;SDS011;64924;42.140;24.762;2023-09-19T17:56:19;28.10;;;13.02;;
73869;SDS011;64924;42.140;24.762;2023-09-19T17:58:45;31.65;;;13.48;;
73869;SDS011;64924;42.140;24.762;2023-09-19T18:01:15;33.20;;;14.40;;
73869;SDS011;64924;42.140;24.762;2023-09-19T18:03:42;18.38;;;9.68;;
73869;SDS011;64924;42.140;24.762;2023-09-19T18:06:09;25.33;;;11.85;;
73869;SDS011;64924;42.140;24.762;2023-09-19T18:08:35;32.17;;;13.93;;
73869;SDS011;64924;42.140;24.762;2023-09-19T18:11:02;31.48;;;13.35;;
73869;SDS011;64924;42.140;24.762;2023-09-19T18:13:28;26.77;;;13.15;;
73869;SDS011;64924;42.140;24.762;2023-09-19T18:15:57;26.55;;;13.00;;
73869;SDS011;64924;42.140;24.762;2023-09-19T18:18:24;32.35;;;13.60;;
73869;SDS011;64924;42.140;24.762;2023-09-19T18:20:50;29.48;;;13.57;;
73869;SDS011;64924;42.140;24.762;2023-09-19T18:23:16;28.73;;;14.55;;
73869;SDS011;64924;42.140;24.762;2023-09-19T18:25:42;25.95;;;13.40;;
73869;SDS011;64924;42.140;24.762;2023-09-19T18:28:15;26.10;;;13.45;;
73869;SDS011;64924;42.140;24.762;2023-09-19T18:30:40;29.77;;;14.85;;
73869;SDS011;64924;42.140;24.762;2023-09-19T18:33:06;31.90;;;16.80;;
73869;SDS011;64924;42.140;24.762;2023-09-19T18:35:31;29.55;;;16.50;;
73869;SDS011;64924;42.140;24.762;2023-09-19T18:37:59;30.98;;;16.63;;
73869;SDS011;64924;42.140;24.762;2023-09-19T18:40:26;31.92;;;15.65;;
73869;SDS011;64924;42.140;24.762;2023-09-19T18:42:51;27.75;;;14.68;;
73869;SDS011;64924;42.140;24.762;2023-09-19T18:45:18;36.67;;;15.25;;
73869;SDS011;64924;42.140;24.762;2023-09-19T18:47:43;26.60;;;14.15;;
73869;SDS011;64924;42.140;24.762;2023-09-19T18:50:09;26.30;;;14.15;;
73869;SDS011;64924;42.140;24.762;2023-09-19T18:52:37;31.92;;;14.98;;
73869;SDS011;64924;42.140;24.762;2023-09-19T18:55:07;22.98;;;11.40;;
73869;SDS011;64924;42.140;24.762;2023-09-19T18:57:35;31.92;;;14.25;;
73869;SDS011;64924;42.140;24.762;2023-09-19T19:00:02;32.22;;;15.02;;
73869;SDS011;64924;42.140;24.762;2023-09-19T19:02:28;29.65;;;14.10;;
73869;SDS011;64924;42.140;24.762;2023-09-19T19:04:54;37.95;;;16.33;;
73869;SDS011;64924;42.140;24.762;2023-09-19T19:07:20;35.45;;;14.05;;
73869;SDS011;64924;42.140;24.762;2023-09-19T19:09:47;33.70;;;14.98;;
73869;SDS011;64924;42.140;24.762;2023-09-19T19:12:12;26.63;;;13.15;;
73869;SDS011;64924;42.140;24.762;2023-09-19T19:14:38;21.40;;;11.98;;
73869;SDS011;64924;42.140;24.762;2023-09-19T19:17:04;27.67;;;13.45;;
73869;SDS011;64924;42.140;24.762;2023-09-19T19:19:29;27.25;;;13.70;;
73869;SDS011;64924;42.140;24.762;2023-09-19T19:21:56;33.08;;;15.00;;
73869;SDS011;64924;42.140;24.762;2023-09-19T19:24:23;29.83;;;13.77;;
73869;SDS011;64924;42.140;24.762;2023-09-19T19:26:49;31.13;;;13.98;;
73869;SDS011;64924;42.140;24.762;2023-09-19T19:29:15;25.70;;;13.20;;
73869;SDS011;64924;42.140;24.762;2023-09-19T19:31:41;28.45;;;13.57;;
73869;SDS011;64924;42.140;24.762;2023-09-19T19:34:07;27.33;;;13.80;;
73869;SDS011;64924;42.140;24.762;2023-09-19T19:36:32;23.98;;;13.25;;
73869;SDS011;64924;42.140;24.762;2023-09-19T19:38:58;26.63;;;12.85;;
73869;SDS011;64924;42.140;24.762;2023-09-19T19:41:24;32.20;;;12.00;;
73869;SDS011;64924;42.140;24.762;2023-09-19T19:43:49;21.80;;;12.18;;
73869;SDS011;64924;42.140;24.762;2023-09-19T19:46:15;28.63;;;13.38;;
73869;SDS011;64924;42.140;24.762;2023-09-19T19:48:41;19.95;;;12.93;;
73869;SDS011;64924;42.140;24.762;2023-09-19T19:51:07;20.85;;;10.70;;
73869;SDS011;64924;42.140;24.762;2023-09-19T19:53:34;21.17;;;10.57;;
73869;SDS011;64924;42.140;24.762;2023-09-19T19:56:01;19.88;;;11.25;;
73869;SDS011;64924;42.140;24.762;2023-09-19T19:58:30;16.63;;;10.30;;
73869;SDS011;64924;42.140;24.762;2023-09-19T20:00:56;18.70;;;9.52;;
73869;SDS011;64924;42.140;24.762;2023-09-19T20:03:21;17.25;;;8.52;;
73869;SDS011;64924;42.140;24.762;2023-09-19T20:05:47;10.60;;;7.25;;
73869;SDS011;64924;42.140;24.762;2023-09-19T20:08:14;10.90;;;7.75;;
73869;SDS011;64924;42.140;24.762;2023-09-19T20:10:40;15.82;;;7.93;;
73869;SDS011;64924;42.140;24.762;2023-09-19T20:13:06;21.58;;;10.10;;
73869;SDS011;64924;42.140;24.762;2023-09-19T20:15:33;18.52;;;10.88;;
73869;SDS011;64924;42.140;24.762;2023-09-19T20:17:59;22.77;;;12.02;;
73869;SDS011;64924;42.140;24.762;2023-09-19T20:20:28;22.40;;;11.13;;
73869;SDS011;64924;42.140;24.762;2023-09-19T20:22:54;28.25;;;11.88;;
73869;SDS011;64924;42.140;24.762;2023-09-19T20:25:20;19.35;;;11.38;;
73869;SDS011;64924;42.140;24.762;2023-09-19T20:27:47;23.60;;;11.82;;
73869;SDS011;64924;42.140;24.762;2023-09-19T20:30:13;30.85;;;12.63;;
73869;SDS011;64924;42.140;24.762;2023-09-19T20:32:40;29.98;;;12.88;;
73869;SDS011;64924;42.140;24.762;2023-09-19T20:35:09;22.27;;;10.45;;
73869;SDS011;64924;42.140;24.762;2023-09-19T20:37:36;18.27;;;10.60;;
73869;SDS011;64924;42.140;24.762;2023-09-19T20:40:05;17.60;;;9.80;;
73869;SDS011;64924;42.140;24.762;2023-09-19T20:42:32;16.17;;;9.23;;
73869;SDS011;64924;42.140;24.762;2023-09-19T20:44:57;11.07;;;8.50;;
73869;SDS011;64924;42.140;24.762;2023-09-19T20:47:24;14.43;;;8.15;;
73869;SDS011;64924;42.140;24.762;2023-09-19T20:49:50;11.52;;;7.80;;
73869;SDS011;64924;42.140;24.762;2023-09-19T20:52:16;11.88;;;7.35;;
73869;SDS011;64924;42.140;24.762;2023-09-19T20:54:41;11.85;;;6.78;;
73869;SDS011;64924;42.140;24.762;2023-09-19T20:57:08;12.55;;;6.82;;
73869;SDS011;64924;42.140;24.762;2023-09-19T20:59:35;13.05;;;6.85;;
73869;SDS011;64924;42.140;24.762;2023-09-19T21:02:00;13.00;;;6.60;;